createdAt,value
2022-08-16T00:00:22.598Z,18.39
2022-08-16T00:05:26.126Z,18.29
2022-08-16T00:10:31.174Z,18.46
2022-08-16T00:15:51.397Z,18.64
2022-08-16T00:20:56.003Z,18.50
2022-08-16T00:26:35.193Z,18.29
2022-08-16T00:31:19.826Z,17.99
2022-08-16T00:36:26.018Z,18.17
2022-08-16T00:41:29.376Z,18.06
2022-08-16T00:46:36.252Z,18.19
2022-08-16T00:51:38.692Z,18.02
2022-08-16T00:56:56.747Z,17.88
2022-08-16T01:02:31.544Z,17.86
2022-08-16T01:07:24.120Z,17.76
2022-08-16T01:12:26.571Z,17.84
2022-08-16T01:17:30.306Z,17.78
2022-08-16T01:22:52.429Z,17.60
2022-08-16T01:27:58.237Z,17.49
2022-08-16T01:33:15.148Z,17.76
2022-08-16T01:38:25.563Z,17.62
2022-08-16T01:43:27.578Z,17.46
2022-08-16T01:48:32.356Z,17.47
2022-08-16T01:53:37.254Z,17.39
2022-08-16T01:58:47.940Z,17.52
2022-08-16T02:03:51.936Z,17.23
2022-08-16T02:08:54.626Z,17.42
2022-08-16T02:13:56.246Z,17.06
2022-08-16T02:18:57.738Z,17.22
2022-08-16T02:23:59.518Z,17.28
2022-08-16T02:29:01.169Z,17.15
2022-08-16T02:34:06.329Z,17.15
2022-08-16T02:39:10.525Z,17.30
2022-08-16T02:44:13.678Z,17.05
2022-08-16T02:49:16.755Z,16.79
2022-08-16T02:54:18.392Z,16.76
2022-08-16T02:59:21.310Z,16.84
2022-08-16T03:04:28.621Z,17.05
2022-08-16T03:09:33.638Z,16.75
2022-08-16T03:14:35.735Z,17.03
2022-08-16T03:19:42.279Z,16.76
2022-08-16T03:25:04.243Z,16.66
2022-08-16T03:30:17.841Z,16.91
2022-08-16T03:35:32.606Z,16.86
2022-08-16T03:40:37.366Z,16.80
2022-08-16T03:45:40.414Z,16.76
2022-08-16T03:50:42.963Z,16.53
2022-08-16T03:56:01.706Z,16.69
2022-08-16T04:01:03.879Z,16.65
2022-08-16T04:06:06.195Z,16.54
2022-08-16T04:11:07.751Z,16.61
2022-08-16T04:16:26.291Z,16.75
2022-08-16T04:21:34.600Z,16.63
2022-08-16T04:26:36.375Z,16.53
2022-08-16T04:31:37.788Z,16.64
2022-08-16T04:36:39.282Z,16.71
2022-08-16T04:41:40.749Z,16.66
2022-08-16T04:47:02.366Z,16.88
2022-08-16T04:52:04.893Z,17.27
2022-08-16T04:57:26.443Z,17.22
2022-08-16T05:02:41.969Z,17.65
2022-08-16T05:07:58.192Z,17.90
2022-08-16T05:13:03.201Z,18.16
2022-08-16T05:18:04.880Z,18.25
2022-08-16T05:23:06.414Z,18.79
2022-08-16T05:28:08.559Z,19.15
2022-08-16T05:33:16.233Z,20.78
2022-08-16T05:38:31.321Z,22.25
2022-08-16T05:43:43.497Z,25.70
2022-08-16T05:48:54.689Z,27.43
2022-08-16T05:53:56.863Z,29.11
2022-08-16T05:58:59.635Z,31.14
2022-08-16T06:04:01.346Z,32.72
2022-08-16T06:09:03.705Z,34.14
2022-08-16T06:14:05.635Z,35.53
2022-08-16T06:19:07.477Z,34.11
2022-08-16T06:24:53.550Z,35.86
2022-08-16T06:29:32.274Z,33.80
2022-08-16T06:34:56.858Z,34.69
2022-08-16T06:39:55.462Z,35.16
2022-08-16T06:44:57.035Z,34.48
2022-08-16T06:49:58.575Z,35.99
2022-08-16T06:55:00.113Z,38.85
2022-08-16T07:00:02.151Z,39.91
2022-08-16T07:05:15.555Z,39.08
2022-08-16T07:10:19.270Z,39.09
2022-08-16T07:15:27.302Z,41.13
2022-08-16T07:20:47.139Z,36.71
2022-08-16T07:25:49.623Z,37.21
2022-08-16T07:30:51.193Z,42.63
2022-08-16T07:35:52.683Z,40.03
2022-08-16T07:41:09.603Z,36.40
2022-08-16T07:46:38.402Z,36.93
2022-08-16T07:51:35.478Z,38.64
2022-08-16T07:56:38.770Z,38.40
2022-08-16T08:01:40.397Z,39.02
2022-08-16T08:06:43.711Z,41.69
2022-08-16T08:11:59.827Z,39.45
2022-08-16T08:17:04.244Z,35.98
2022-08-16T08:22:10.041Z,32.01
2022-08-16T08:27:22.742Z,30.29
2022-08-16T08:32:59.628Z,28.36
2022-08-16T08:37:54.542Z,29.00
2022-08-16T08:43:00.595Z,28.03
2022-08-16T08:48:33.403Z,26.82
2022-08-16T08:53:34.635Z,27.71
2022-08-16T08:58:36.230Z,27.39
2022-08-16T09:03:39.491Z,28.02
2022-08-16T09:08:47.413Z,28.07
2022-08-16T09:13:49.111Z,27.68
2022-08-16T09:18:56.836Z,27.23
2022-08-16T09:24:01.134Z,27.48
2022-08-16T09:29:14.616Z,28.28
2022-08-16T09:34:19.335Z,28.24
2022-08-16T09:39:21.099Z,28.74
2022-08-16T09:45:09.266Z,28.32
2022-08-16T09:49:45.335Z,28.79
2022-08-16T09:54:52.707Z,28.27
2022-08-16T09:59:56.156Z,29.19
2022-08-16T10:04:58.942Z,28.63
2022-08-16T10:10:00.764Z,28.81
2022-08-16T10:15:02.303Z,29.00
2022-08-16T10:20:04.463Z,28.85
2022-08-16T10:25:07.404Z,28.22
2022-08-16T10:30:25.699Z,28.58
2022-08-16T10:35:33.059Z,28.75
2022-08-16T10:40:34.917Z,28.37
2022-08-16T10:45:37.494Z,28.70
2022-08-16T10:50:39.049Z,28.38
2022-08-16T10:55:45.141Z,28.84
2022-08-16T11:00:47.448Z,28.96
2022-08-16T11:06:06.713Z,28.43
2022-08-16T11:11:15.568Z,28.82
2022-08-16T11:17:02.554Z,28.84
2022-08-16T11:27:23.988Z,28.74
2022-08-16T11:32:34.706Z,28.89
2022-08-16T11:38:23.184Z,28.82
2022-08-16T11:42:58.933Z,28.85
2022-08-16T11:48:01.053Z,28.86
2022-08-16T11:53:05.144Z,28.62
2022-08-16T11:58:08.612Z,28.25
2022-08-16T12:03:13.776Z,28.43
2022-08-16T12:08:18.294Z,28.23
2022-08-16T12:13:19.806Z,28.18
2022-08-16T12:18:22.978Z,28.52
2022-08-16T12:23:24.511Z,28.35
2022-08-16T12:28:36.931Z,28.19
2022-08-16T12:33:47.566Z,28.33
2022-08-16T12:38:53.010Z,28.42
2022-08-16T12:43:57.307Z,28.60
2022-08-16T12:49:04.590Z,28.45
2022-08-16T12:54:08.885Z,28.17
2022-08-16T12:59:11.507Z,28.26
2022-08-16T13:04:20.670Z,28.03
2022-08-16T13:09:23.138Z,27.90
2022-08-16T13:14:32.963Z,27.92
2022-08-16T13:20:03.829Z,27.81
2022-08-16T13:24:57.842Z,27.66
2022-08-16T13:30:00.007Z,27.70
2022-08-16T13:35:01.504Z,27.78
2022-08-16T13:40:05.094Z,28.04
2022-08-16T13:45:08.871Z,27.92
2022-08-16T13:50:11.215Z,28.07
2022-08-16T13:55:17.919Z,27.90
2022-08-16T14:00:20.900Z,27.90
2022-08-16T14:05:23.247Z,27.96
2022-08-16T14:10:24.897Z,27.98
2022-08-16T14:15:26.545Z,27.85
2022-08-16T14:20:28.246Z,27.81
2022-08-16T14:25:29.721Z,27.52
2022-08-16T14:30:31.262Z,27.45
2022-08-16T14:35:48.446Z,27.50
2022-08-16T14:40:54.978Z,27.77
2022-08-16T14:45:57.298Z,27.97
2022-08-16T14:50:59.007Z,28.02
2022-08-16T14:56:00.554Z,27.90
2022-08-16T15:01:02.128Z,27.89
2022-08-16T15:06:05.295Z,27.83
2022-08-16T15:11:07.706Z,27.91
2022-08-16T15:16:09.450Z,27.80
2022-08-16T15:21:10.920Z,27.64
2022-08-16T15:26:18.814Z,27.50
2022-08-16T15:31:34.091Z,27.71
2022-08-16T15:36:37.037Z,27.61
2022-08-16T15:41:38.575Z,27.23
2022-08-16T15:46:56.496Z,27.21
2022-08-16T15:51:59.529Z,27.19
2022-08-16T15:57:12.109Z,26.99
2022-08-16T16:02:13.743Z,27.05
2022-08-16T16:07:16.211Z,26.81
2022-08-16T16:12:50.171Z,26.62
2022-08-16T16:17:40.743Z,26.55
2022-08-16T16:22:42.323Z,26.83
2022-08-16T16:27:45.301Z,26.74
2022-08-16T16:32:47.016Z,26.39
2022-08-16T16:37:48.668Z,26.82
2022-08-16T16:42:52.567Z,26.41
2022-08-16T16:47:54.783Z,26.30
2022-08-16T16:52:56.435Z,26.33
2022-08-16T16:58:00.060Z,26.48
2022-08-16T17:03:04.651Z,26.17
2022-08-16T17:08:07.813Z,25.97
2022-08-16T17:13:11.433Z,25.87
2022-08-16T17:19:14.871Z,25.77
2022-08-16T17:23:59.682Z,25.88
2022-08-16T17:28:58.155Z,25.81
2022-08-16T17:34:03.442Z,25.87
2022-08-16T17:39:24.926Z,25.76
2022-08-16T17:44:26.538Z,25.74
2022-08-16T17:49:27.989Z,25.61
2022-08-16T17:54:30.680Z,25.57
2022-08-16T17:59:32.612Z,25.65
2022-08-16T18:04:48.780Z,25.60
2022-08-16T18:09:52.567Z,25.49
2022-08-16T18:14:59.894Z,25.44
2022-08-16T18:20:01.764Z,25.31
2022-08-16T18:25:05.623Z,25.08
2022-08-16T18:30:07.488Z,24.83
2022-08-16T18:35:09.226Z,24.60
2022-08-16T18:40:11.283Z,24.43
2022-08-16T18:45:13.123Z,24.24
2022-08-16T18:50:14.959Z,24.21
2022-08-16T18:55:16.674Z,24.04
2022-08-16T19:00:22.130Z,23.88
2022-08-16T19:05:26.214Z,23.43
2022-08-16T19:10:29.079Z,22.94
2022-08-16T19:15:30.558Z,22.64
2022-08-16T19:20:32.642Z,22.78
2022-08-16T19:25:47.296Z,22.87
2022-08-16T19:30:50.018Z,22.85
2022-08-16T19:35:51.484Z,22.76
2022-08-16T19:40:53.204Z,22.70
2022-08-16T19:45:54.707Z,22.61
2022-08-16T19:50:56.201Z,22.42
2022-08-16T19:55:57.646Z,22.43
2022-08-16T20:00:59.167Z,22.13
2022-08-16T20:06:01.234Z,22.30
2022-08-16T20:11:02.726Z,22.15
2022-08-16T20:16:04.232Z,22.15
2022-08-16T20:21:05.882Z,22.08
2022-08-16T20:26:07.354Z,22.00
2022-08-16T20:31:10.715Z,21.80
2022-08-16T20:36:16.380Z,21.82
2022-08-16T20:41:18.562Z,21.68
2022-08-16T20:46:20.128Z,21.68
2022-08-16T20:51:21.643Z,21.51
2022-08-16T20:56:23.128Z,21.42
2022-08-16T21:01:24.647Z,21.16
2022-08-16T21:06:52.981Z,21.37
2022-08-16T21:11:57.635Z,21.29
2022-08-16T21:17:00.172Z,21.28
2022-08-16T21:22:21.116Z,21.32
2022-08-16T21:27:22.632Z,21.14
2022-08-16T21:32:35.276Z,20.92
2022-08-16T21:38:28.157Z,20.95
2022-08-16T21:43:19.787Z,20.88
2022-08-16T21:48:33.835Z,20.74
2022-08-16T21:53:37.659Z,20.61
2022-08-16T21:58:39.453Z,20.64
2022-08-16T22:03:40.917Z,20.58
2022-08-16T22:08:48.738Z,20.57
2022-08-16T22:13:57.873Z,20.43
2022-08-16T22:19:01.605Z,20.34
2022-08-16T22:24:03.520Z,20.31
2022-08-16T22:29:08.978Z,20.35
2022-08-16T22:34:11.376Z,20.25
2022-08-16T22:39:14.335Z,20.18
2022-08-16T22:44:16.601Z,20.16
2022-08-16T22:49:18.023Z,19.82
2022-08-16T22:54:47.397Z,19.80
2022-08-16T22:59:40.904Z,19.85
2022-08-16T23:04:42.341Z,19.81
2022-08-16T23:09:43.820Z,19.80
2022-08-16T23:14:45.290Z,19.64
2022-08-16T23:19:46.745Z,19.92
2022-08-16T23:24:56.267Z,19.69
2022-08-16T23:29:58.523Z,19.70
2022-08-16T23:35:04.003Z,19.81
2022-08-16T23:40:07.734Z,19.68
2022-08-16T23:45:09.408Z,19.52
2022-08-16T23:50:10.908Z,19.46
2022-08-16T23:55:12.410Z,19.48
